Time,TemperatureF,DewpointF,PressureIn,WindDirection,WindDirectionDegrees,WindSpeedMPH,WindSpeedGustMPH,Humidity,HourlyPrecipIn,Conditions,Clouds,dailyrainin,SoftwareType,DateUTC
2013-06-28 00:00:00,64.9,64.6,29.40,NW,321,0.0,0.0,99,0.00,,,0.00,Wunderground v.1.15,2013-06-28 04:00:00,
2013-06-28 00:05:00,65.0,64.7,29.39,NW,321,0.0,1.0,99,0.00,,,0.00,Wunderground v.1.15,2013-06-28 04:05:00,
2013-06-28 00:15:00,65.0,64.7,29.39,NW,321,0.0,0.0,99,0.00,,,0.00,Wunderground v.1.15,2013-06-28 04:15:00,
2013-06-28 00:20:00,65.2,64.9,29.39,NW,321,0.0,0.0,99,0.00,,,0.00,Wunderground v.1.15,2013-06-28 04:20:00,
2013-06-28 00:25:00,65.4,65.1,29.38,NW,322,0.0,1.0,99,0.00,,,0.00,Wunderground v.1.15,2013-06-28 04:25:00,
2013-06-28 00:30:00,65.6,65.3,29.38,NW,322,0.0,2.0,99,0.00,,,0.00,Wunderground v.1.15,2013-06-28 04:30:00,
2013-06-28 00:35:00,65.7,65.4,29.37,NW,320,1.0,2.0,99,0.00,,,0.00,Wunderground v.1.15,2013-06-28 04:35:00,
2013-06-28 00:45:00,65.6,65.3,29.37,NW,321,0.0,1.0,99,0.00,,,0.00,Wunderground v.1.15,2013-06-28 04:45:00,
2013-06-28 00:50:00,65.6,65.3,29.36,NNW,329,0.0,0.0,99,0.00,,,0.00,Wunderground v.1.15,2013-06-28 04:50:00,
2013-06-28 00:55:00,65.6,65.3,29.36,NNW,336,0.0,2.0,99,0.00,,,0.00,Wunderground v.1.15,2013-06-28 04:55:00,
2013-06-28 01:00:00,65.5,65.2,29.36,North,360,0.0,0.0,99,0.00,,,0.00,Wunderground v.1.15,2013-06-28 05:00:00,
2013-06-28 01:10:00,65.4,65.1,29.35,West,271,1.0,1.0,99,0.00,,,0.00,Wunderground v.1.15,2013-06-28 05:10:00,
2013-06-28 01:15:00,65.4,65.1,29.35,NE,37,1.0,2.0,99,0.00,,,0.00,Wunderground v.1.15,2013-06-28 05:15:00,
2013-06-28 01:20:00,65.4,65.1,29.35,SSE,158,1.0,1.0,99,0.00,,,0.00,Wunderground v.1.15,2013-06-28 05:20:00,
2013-06-28 01:25:00,65.3,65.0,29.34,West,281,1.0,3.0,99,0.00,,,0.00,Wunderground v.1.15,2013-06-28 05:25:00,
2013-06-28 01:30:00,65.3,65.0,29.34,West,276,1.0,1.0,99,0.00,,,0.00,Wunderground v.1.15,2013-06-28 05:30:00,
2013-06-28 01:35:00,65.3,65.0,29.33,West,274,1.0,1.0,99,0.00,,,0.00,Wunderground v.1.15,2013-06-28 05:35:00,
2013-06-28 01:40:00,65.3,65.0,29.33,West,272,1.0,1.0,99,0.00,,,0.00,Wunderground v.1.15,2013-06-28 05:40:00,
2013-06-28 01:50:00,65.3,65.0,29.32,SW,234,2.0,4.0,99,0.00,,,0.00,Wunderground v.1.15,2013-06-28 05:50:00,
2013-06-28 01:55:00,65.2,64.9,29.32,ENE,59,2.0,4.0,99,0.00,,,0.00,Wunderground v.1.15,2013-06-28 05:55:00,
2013-06-28 02:00:00,65.2,64.9,29.31,NNW,333,3.0,4.0,99,0.00,,,0.00,Wunderground v.1.15,2013-06-28 06:00:00,
2013-06-28 02:05:00,65.1,64.8,29.31,West,279,3.0,4.0,99,0.00,,,0.01,Wunderground v.1.15,2013-06-28 06:05:00,
2013-06-28 02:10:00,64.9,64.6,29.30,North,5,3.0,5.0,99,0.00,,,0.01,Wunderground v.1.15,2013-06-28 06:10:00,
2013-06-28 02:20:00,64.9,64.6,29.29,NNW,328,3.0,3.0,99,0.00,,,0.01,Wunderground v.1.15,2013-06-28 06:20:00,
2013-06-28 02:25:00,64.8,64.5,29.29,NW,315,2.0,3.0,99,0.00,,,0.01,Wunderground v.1.15,2013-06-28 06:25:00,
2013-06-28 02:30:00,64.8,64.5,29.28,NW,313,2.0,2.0,99,0.00,,,0.01,Wunderground v.1.15,2013-06-28 06:30:00,
2013-06-28 02:35:00,64.9,64.6,29.28,WNW,282,3.0,4.0,99,0.00,,,0.01,Wunderground v.1.15,2013-06-28 06:35:00,
2013-06-28 02:40:00,65.0,64.7,29.28,ENE,78,3.0,5.0,99,0.00,,,0.01,Wunderground v.1.15,2013-06-28 06:40:00,
2013-06-28 02:45:00,65.0,64.7,29.27,NW,323,4.0,5.0,99,0.00,,,0.01,Wunderground v.1.15,2013-06-28 06:45:00,
2013-06-28 02:55:00,65.1,64.8,29.28,SSE,161,3.0,5.0,99,0.00,,,0.01,Wunderground v.1.15,2013-06-28 06:55:00,
2013-06-28 03:00:00,65.1,64.8,29.27,SW,231,3.0,3.0,99,0.00,,,0.01,Wunderground v.1.15,2013-06-28 07:00:00,
2013-06-28 03:05:00,65.2,64.9,29.27,WNW,286,3.0,3.0,99,0.00,,,0.01,Wunderground v.1.15,2013-06-28 07:05:00,
2013-06-28 03:10:00,65.1,64.8,29.27,WNW,283,3.0,3.0,99,0.00,,,0.01,Wunderground v.1.15,2013-06-28 07:10:00,
2013-06-28 03:15:00,65.0,64.7,29.27,SW,233,3.0,4.0,99,0.00,,,0.01,Wunderground v.1.15,2013-06-28 07:15:00,
2013-06-28 03:20:00,65.0,64.7,29.27,SW,233,4.0,9.0,99,0.00,,,0.01,Wunderground v.1.15,2013-06-28 07:20:00,
2013-06-28 03:25:00,64.9,64.6,29.26,South,188,4.0,9.0,99,0.00,,,0.01,Wunderground v.1.15,2013-06-28 07:25:00,
2013-06-28 03:30:00,64.8,64.5,29.26,NW,324,4.0,5.0,99,0.00,,,0.01,Wunderground v.1.15,2013-06-28 07:30:00,
2013-06-28 03:40:00,64.6,64.3,29.26,West,265,4.0,6.0,99,0.00,,,0.01,Wunderground v.1.15,2013-06-28 07:40:00,
2013-06-28 03:45:00,64.5,64.2,29.26,West,272,4.0,6.0,99,0.00,,,0.01,Wunderground v.1.15,2013-06-28 07:45:00,
2013-06-28 03:55:00,64.3,64.0,29.25,West,275,4.0,5.0,99,0.00,,,0.01,Wunderground v.1.15,2013-06-28 07:55:00,
2013-06-28 04:00:00,64.2,63.9,29.25,SW,219,3.0,3.0,99,0.00,,,0.01,Wunderground v.1.15,2013-06-28 08:00:00,
2013-06-28 04:05:00,64.3,64.0,29.25,NNE,15,4.0,6.0,99,0.00,,,0.01,Wunderground v.1.15,2013-06-28 08:05:00,
2013-06-28 04:10:00,64.5,64.2,29.25,NNW,329,6.0,6.0,99,0.00,,,0.01,Wunderground v.1.15,2013-06-28 08:10:00,
2013-06-28 04:15:00,64.6,64.3,29.25,WNW,283,5.0,6.0,99,0.00,,,0.01,Wunderground v.1.15,2013-06-28 08:15:00,
2013-06-28 04:20:00,64.5,63.9,29.25,SSE,157,4.0,5.0,98,0.00,,,0.01,Wunderground v.1.15,2013-06-28 08:20:00,
2013-06-28 04:30:00,64.5,63.9,29.25,NE,40,4.0,4.0,98,0.00,,,0.01,Wunderground v.1.15,2013-06-28 08:30:00,
2013-06-28 04:35:00,64.5,63.9,29.25,SSE,148,3.0,4.0,98,0.00,,,0.01,Wunderground v.1.15,2013-06-28 08:35:00,
2013-06-28 04:40:00,64.5,63.9,29.25,East,101,3.0,3.0,98,0.00,,,0.01,Wunderground v.1.15,2013-06-28 08:40:00,
2013-06-28 04:45:00,64.4,63.8,29.24,NNE,28,4.0,4.0,98,0.00,,,0.01,Wunderground v.1.15,2013-06-28 08:45:00,
2013-06-28 04:50:00,64.5,63.9,29.25,WNW,284,6.0,14.0,98,0.00,,,0.01,Wunderground v.1.15,2013-06-28 08:50:00,
2013-06-28 05:00:00,64.7,64.1,29.25,NW,308,10.0,10.0,98,0.00,,,0.01,Wunderground v.1.15,2013-06-28 09:00:00,
2013-06-28 05:05:00,64.6,64.0,29.25,WNW,284,8.0,10.0,98,0.00,,,0.01,Wunderground v.1.15,2013-06-28 09:05:00,
2013-06-28 05:10:00,64.5,63.6,29.25,WNW,292,7.0,14.0,97,0.00,,,0.01,Wunderground v.1.15,2013-06-28 09:10:00,
2013-06-28 05:15:00,64.4,63.5,29.25,NE,46,7.0,14.0,97,0.00,,,0.01,Wunderground v.1.15,2013-06-28 09:15:00,
2013-06-28 05:20:00,64.5,63.6,29.25,NNE,20,6.0,7.0,97,0.00,,,0.01,Wunderground v.1.15,2013-06-28 09:20:00,
2013-06-28 05:25:00,64.5,63.6,29.25,NE,50,5.0,7.0,97,0.00,,,0.01,Wunderground v.1.15,2013-06-28 09:25:00,
2013-06-28 05:30:00,64.4,63.5,29.26,NNW,329,7.0,7.0,97,0.00,,,0.01,Wunderground v.1.15,2013-06-28 09:30:00,
2013-06-28 05:40:00,64.3,63.4,29.26,WNW,290,7.0,11.0,97,0.00,,,0.01,Wunderground v.1.15,2013-06-28 09:40:00,
2013-06-28 05:45:00,64.2,63.3,29.26,WNW,292,10.0,11.0,97,0.00,,,0.01,Wunderground v.1.15,2013-06-28 09:45:00,
2013-06-28 05:50:00,64.1,63.2,29.26,WNW,296,10.0,12.0,97,0.00,,,0.01,Wunderground v.1.15,2013-06-28 09:50:00,
2013-06-28 05:55:00,64.1,63.2,29.26,WNW,300,10.0,12.0,97,0.00,,,0.01,Wunderground v.1.15,2013-06-28 09:55:00,
2013-06-28 06:00:00,64.2,63.0,29.26,WNW,299,8.0,11.0,96,0.00,,,0.01,Wunderground v.1.15,2013-06-28 10:00:00,
2013-06-28 06:10:00,64.1,62.9,29.27,WNW,285,8.0,8.0,96,0.00,,,0.01,Wunderground v.1.15,2013-06-28 10:10:00,
2013-06-28 06:15:00,64.0,63.1,29.27,NNE,12,7.0,8.0,97,0.00,,,0.01,Wunderground v.1.15,2013-06-28 10:15:00,
2013-06-28 06:20:00,64.0,63.1,29.27,NW,323,5.0,5.0,97,0.00,,,0.01,Wunderground v.1.15,2013-06-28 10:20:00,
2013-06-28 06:25:00,64.0,63.1,29.27,WNW,296,3.0,12.0,97,0.00,,,0.01,Wunderground v.1.15,2013-06-28 10:25:00,
2013-06-28 06:35:00,63.9,63.0,29.28,WNW,294,6.0,10.0,97,0.00,,,0.01,Wunderground v.1.15,2013-06-28 10:35:00,
2013-06-28 06:40:00,63.9,63.0,29.28,WNW,284,6.0,7.0,97,0.00,,,0.01,Wunderground v.1.15,2013-06-28 10:40:00,
2013-06-28 06:45:00,63.8,62.6,29.28,WNW,298,6.0,7.0,96,0.00,,,0.01,Wunderground v.1.15,2013-06-28 10:45:00,
2013-06-28 06:50:00,64.0,63.1,29.28,WNW,301,6.0,6.0,97,0.00,,,0.01,Wunderground v.1.15,2013-06-28 10:50:00,
2013-06-28 06:55:00,64.1,62.9,29.28,WNW,298,6.0,6.0,96,0.00,,,0.01,Wunderground v.1.15,2013-06-28 10:55:00,
2013-06-28 07:00:00,64.2,63.0,29.29,WNW,290,7.0,7.0,96,0.00,,,0.01,Wunderground v.1.15,2013-06-28 11:00:00,
2013-06-28 07:05:00,64.2,63.0,29.29,West,265,7.0,7.0,96,0.00,,,0.01,Wunderground v.1.15,2013-06-28 11:05:00,
2013-06-28 07:10:00,64.3,63.1,29.29,WNW,296,8.0,8.0,96,0.00,,,0.01,Wunderground v.1.15,2013-06-28 11:10:00,
2013-06-28 07:15:00,64.5,63.3,29.29,NNW,335,8.0,9.0,96,0.00,,,0.01,Wunderground v.1.15,2013-06-28 11:15:00,
2013-06-28 07:20:00,64.8,63.6,29.29,NNW,331,6.0,6.0,96,0.00,,,0.01,Wunderground v.1.15,2013-06-28 11:20:00,
2013-06-28 07:25:00,65.0,63.8,29.29,WNW,299,5.0,6.0,96,0.00,,,0.01,Wunderground v.1.15,2013-06-28 11:25:00,
2013-06-28 07:30:00,65.0,63.5,29.30,WNW,293,6.0,7.0,95,0.00,,,0.01,Wunderground v.1.15,2013-06-28 11:30:00,
2013-06-28 07:35:00,65.0,63.5,29.30,West,269,6.0,7.0,95,0.00,,,0.01,Wunderground v.1.15,2013-06-28 11:35:00,
2013-06-28 07:40:00,64.9,63.4,29.30,WNW,286,5.0,6.0,95,0.00,,,0.01,Wunderground v.1.15,2013-06-28 11:40:00,
2013-06-28 07:45:00,64.7,63.2,29.30,WNW,286,5.0,6.0,95,0.00,,,0.01,Wunderground v.1.15,2013-06-28 11:45:00,
2013-06-28 07:50:00,64.7,62.9,29.30,WNW,296,5.0,6.0,94,0.00,,,0.01,Wunderground v.1.15,2013-06-28 11:50:00,
2013-06-28 07:55:00,64.8,63.3,29.30,West,268,5.0,6.0,95,0.00,,,0.01,Wunderground v.1.15,2013-06-28 11:55:00,
2013-06-28 08:00:00,65.0,63.2,29.31,West,261,6.0,6.0,94,0.00,,,0.01,Wunderground v.1.15,2013-06-28 12:00:00,
2013-06-28 08:05:00,65.2,63.4,29.30,West,266,5.0,6.0,94,0.00,,,0.01,Wunderground v.1.15,2013-06-28 12:05:00,
2013-06-28 08:15:00,65.3,63.5,29.30,WNW,287,6.0,7.0,94,0.00,,,0.01,Wunderground v.1.15,2013-06-28 12:15:00,
2013-06-28 08:20:00,65.6,64.1,29.30,WSW,258,6.0,6.0,95,0.00,,,0.01,Wunderground v.1.15,2013-06-28 12:20:00,
2013-06-28 08:25:00,66.1,64.0,29.30,West,259,8.0,8.0,93,0.00,,,0.01,Wunderground v.1.15,2013-06-28 12:25:00,
2013-06-28 08:30:00,66.3,64.2,29.30,West,278,7.0,7.0,93,0.00,,,0.01,Wunderground v.1.15,2013-06-28 12:30:00,
2013-06-28 08:35:00,67.0,64.6,29.29,WNW,292,7.0,8.0,92,0.00,,,0.01,Wunderground v.1.15,2013-06-28 12:35:00,
2013-06-28 08:45:00,67.6,64.9,29.29,West,277,6.0,6.0,91,0.00,,,0.01,Wunderground v.1.15,2013-06-28 12:45:00,
2013-06-28 08:50:00,67.7,64.7,29.29,West,272,5.0,7.0,90,0.00,,,0.01,Wunderground v.1.15,2013-06-28 12:50:00,
2013-06-28 08:55:00,67.7,64.7,29.29,West,266,6.0,7.0,90,0.00,,,0.01,Wunderground v.1.15,2013-06-28 12:55:00,
2013-06-28 09:00:00,67.6,64.6,29.29,WSW,245,5.0,5.0,90,0.00,,,0.01,Wunderground v.1.15,2013-06-28 13:00:00,
2013-06-28 09:05:00,67.6,64.9,29.29,West,261,5.0,5.0,91,0.00,,,0.01,Wunderground v.1.15,2013-06-28 13:05:00,
2013-06-28 09:10:00,67.4,64.4,29.30,WNW,294,5.0,5.0,90,0.00,,,0.01,Wunderground v.1.15,2013-06-28 13:10:00,
2013-06-28 09:15:00,67.2,64.2,29.30,West,273,6.0,6.0,90,0.00,,,0.01,Wunderground v.1.15,2013-06-28 13:15:00,
2013-06-28 09:20:00,67.0,64.0,29.29,West,262,6.0,7.0,90,0.00,,,0.01,Wunderground v.1.15,2013-06-28 13:20:00,
2013-06-28 09:25:00,67.2,64.5,29.29,West,265,5.0,7.0,91,0.00,,,0.01,Wunderground v.1.15,2013-06-28 13:25:00,
2013-06-28 09:30:00,67.2,64.5,29.29,WSW,254,5.0,5.0,91,0.00,,,0.01,Wunderground v.1.15,2013-06-28 13:30:00,
2013-06-28 09:40:00,67.0,64.3,29.29,NW,318,6.0,6.0,91,0.00,,,0.01,Wunderground v.1.15,2013-06-28 13:40:00,
2013-06-28 09:45:00,67.2,64.5,29.29,WNW,291,6.0,6.0,91,0.00,,,0.01,Wunderground v.1.15,2013-06-28 13:45:00,
2013-06-28 09:50:00,67.2,64.5,29.29,West,279,6.0,6.0,91,0.00,,,0.01,Wunderground v.1.15,2013-06-28 13:50:00,
2013-06-28 09:55:00,67.2,64.5,29.29,West,261,6.0,6.0,91,0.00,,,0.01,Wunderground v.1.15,2013-06-28 13:55:00,
2013-06-28 10:00:00,67.1,64.4,29.29,West,278,6.0,6.0,91,0.00,,,0.01,Wunderground v.1.15,2013-06-28 14:00:00,
2013-06-28 10:05:00,67.1,64.4,29.29,West,279,6.0,7.0,91,0.00,,,0.01,Wunderground v.1.15,2013-06-28 14:05:00,
2013-06-28 10:10:00,67.0,64.3,29.29,WNW,298,6.0,6.0,91,0.00,,,0.01,Wunderground v.1.15,2013-06-28 14:10:00,
2013-06-28 10:20:00,66.5,64.1,29.29,WNW,290,5.0,5.0,92,0.00,,,0.01,Wunderground v.1.15,2013-06-28 14:20:00,
2013-06-28 10:25:00,66.6,64.5,29.29,WNW,290,4.0,5.0,93,0.00,,,0.01,Wunderground v.1.15,2013-06-28 14:25:00,
2013-06-28 10:30:00,66.6,64.5,29.29,WNW,298,3.0,4.0,93,0.00,,,0.01,Wunderground v.1.15,2013-06-28 14:30:00,
2013-06-28 10:35:00,66.7,64.3,29.29,WNW,288,3.0,5.0,92,0.00,,,0.01,Wunderground v.1.15,2013-06-28 14:35:00,
2013-06-28 10:40:00,66.9,64.5,29.28,WNW,288,4.0,4.0,92,0.00,,,0.01,Wunderground v.1.15,2013-06-28 14:40:00,
2013-06-28 10:45:00,67.2,64.5,29.28,WNW,295,3.0,4.0,91,0.00,,,0.01,Wunderground v.1.15,2013-06-28 14:45:00,
2013-06-28 10:55:00,67.7,64.7,29.29,WNW,286,3.0,5.0,90,0.00,,,0.01,Wunderground v.1.15,2013-06-28 14:55:00,
2013-06-28 11:00:00,68.0,64.6,29.29,WSW,256,4.0,4.0,89,0.00,,,0.01,Wunderground v.1.15,2013-06-28 15:00:00,
2013-06-28 11:05:00,68.3,64.6,29.28,NW,304,4.0,4.0,88,0.00,,,0.01,Wunderground v.1.15,2013-06-28 15:05:00,
2013-06-28 11:10:00,68.8,65.7,29.28,WNW,282,3.0,3.0,90,0.00,,,0.01,Wunderground v.1.15,2013-06-28 15:10:00,
2013-06-28 11:15:00,69.0,65.0,29.29,West,277,3.0,9.0,87,0.00,,,0.01,Wunderground v.1.15,2013-06-28 15:15:00,
2013-06-28 11:25:00,68.7,65.3,29.29,West,279,5.0,5.0,89,0.00,,,0.01,Wunderground v.1.15,2013-06-28 15:25:00,
2013-06-28 11:30:00,69.1,65.7,29.28,WNW,293,3.0,4.0,89,0.00,,,0.01,Wunderground v.1.15,2013-06-28 15:30:00,
2013-06-28 11:35:00,69.2,65.5,29.29,WNW,283,3.0,4.0,88,0.00,,,0.01,Wunderground v.1.15,2013-06-28 15:35:00,
2013-06-28 11:40:00,69.5,65.8,29.29,WNW,283,3.0,5.0,88,0.00,,,0.01,Wunderground v.1.15,2013-06-28 15:40:00,
2013-06-28 11:45:00,69.8,66.1,29.29,NW,308,3.0,6.0,88,0.00,,,0.01,Wunderground v.1.15,2013-06-28 15:45:00,
2013-06-28 11:50:00,70.4,65.3,29.29,WNW,294,5.0,5.0,84,0.00,,,0.01,Wunderground v.1.15,2013-06-28 15:50:00,
2013-06-28 12:00:00,71.2,66.5,29.29,West,275,3.0,5.0,85,0.00,,,0.01,Wunderground v.1.15,2013-06-28 16:00:00,
2013-06-28 12:05:00,70.8,65.0,29.29,West,271,4.0,8.0,82,0.00,,,0.01,Wunderground v.1.15,2013-06-28 16:05:00,
2013-06-28 12:10:00,70.4,65.0,29.30,West,275,6.0,6.0,83,0.00,,,0.01,Wunderground v.1.15,2013-06-28 16:10:00,
2013-06-28 12:15:00,70.5,65.8,29.29,WSW,250,5.0,6.0,85,0.00,,,0.01,Wunderground v.1.15,2013-06-28 16:15:00,
2013-06-28 12:20:00,70.9,65.8,29.29,West,273,5.0,5.0,84,0.00,,,0.01,Wunderground v.1.15,2013-06-28 16:20:00,
2013-06-28 12:25:00,70.8,65.7,29.29,West,269,5.0,5.0,84,0.00,,,0.01,Wunderground v.1.15,2013-06-28 16:25:00,
2013-06-28 12:30:00,70.8,66.1,29.29,West,273,5.0,5.0,85,0.00,,,0.01,Wunderground v.1.15,2013-06-28 16:30:00,
2013-06-28 12:40:00,69.8,65.1,29.29,West,273,5.0,5.0,85,0.00,,,0.01,Wunderground v.1.15,2013-06-28 16:40:00,
2013-06-28 12:45:00,69.5,65.5,29.29,WSW,257,5.0,6.0,87,0.00,,,0.01,Wunderground v.1.15,2013-06-28 16:45:00,
2013-06-28 12:50:00,69.2,65.5,29.29,West,268,4.0,4.0,88,0.00,,,0.01,Wunderground v.1.15,2013-06-28 16:50:00,
2013-06-28 12:55:00,68.9,65.2,29.29,West,268,4.0,4.0,88,0.00,,,0.01,Wunderground v.1.15,2013-06-28 16:55:00,
2013-06-28 13:00:00,69.2,65.5,29.29,West,268,3.0,3.0,88,0.00,,,0.01,Wunderground v.1.15,2013-06-28 17:00:00,
2013-06-28 13:10:00,69.5,65.5,29.29,WNW,288,3.0,3.0,87,0.00,,,0.01,Wunderground v.1.15,2013-06-28 17:10:00,
2013-06-28 13:15:00,69.7,66.0,29.28,NW,304,3.0,3.0,88,0.00,,,0.01,Wunderground v.1.15,2013-06-28 17:15:00,
2013-06-28 13:20:00,69.9,65.9,29.28,NW,304,3.0,3.0,87,0.00,,,0.01,Wunderground v.1.15,2013-06-28 17:20:00,
2013-06-28 13:25:00,70.0,66.0,29.28,WNW,301,2.0,3.0,87,0.00,,,0.01,Wunderground v.1.15,2013-06-28 17:25:00,
2013-06-28 13:35:00,69.9,65.9,29.28,West,262,4.0,6.0,87,0.00,,,0.01,Wunderground v.1.15,2013-06-28 17:35:00,
2013-06-28 13:40:00,70.0,66.0,29.28,West,274,4.0,4.0,87,0.00,,,0.01,Wunderground v.1.15,2013-06-28 17:40:00,
2013-06-28 13:45:00,69.9,65.9,29.28,WSW,248,4.0,4.0,87,0.00,,,0.01,Wunderground v.1.15,2013-06-28 17:45:00,
2013-06-28 13:50:00,70.0,66.3,29.28,WSW,248,3.0,3.0,88,0.00,,,0.01,Wunderground v.1.15,2013-06-28 17:50:00,
2013-06-28 13:55:00,70.1,66.4,29.28,West,279,3.0,4.0,88,0.00,,,0.01,Wunderground v.1.15,2013-06-28 17:55:00,
2013-06-28 14:05:00,70.3,65.9,29.28,WNW,283,4.0,5.0,86,0.00,,,0.01,Wunderground v.1.15,2013-06-28 18:05:00,
2013-06-28 14:10:00,70.4,66.3,29.28,West,275,3.0,3.0,87,0.00,,,0.01,Wunderground v.1.15,2013-06-28 18:10:00,
2013-06-28 14:15:00,70.3,65.6,29.28,WNW,299,3.0,4.0,85,0.00,,,0.01,Wunderground v.1.15,2013-06-28 18:15:00,
2013-06-28 14:20:00,70.3,65.9,29.28,WNW,300,3.0,6.0,86,0.00,,,0.01,Wunderground v.1.15,2013-06-28 18:20:00,
2013-06-28 14:25:00,70.2,66.1,29.28,WNW,296,4.0,6.0,87,0.00,,,0.01,Wunderground v.1.15,2013-06-28 18:25:00,
2013-06-28 14:30:00,70.2,65.5,29.28,WNW,287,4.0,4.0,85,0.00,,,0.01,Wunderground v.1.15,2013-06-28 18:30:00,
2013-06-28 14:35:00,70.6,66.2,29.28,WNW,287,4.0,4.0,86,0.00,,,0.01,Wunderground v.1.15,2013-06-28 18:35:00,
2013-06-28 14:40:00,70.7,66.0,29.28,WNW,299,3.0,3.0,85,0.00,,,0.01,Wunderground v.1.15,2013-06-28 18:40:00,
2013-06-28 14:45:00,70.8,66.1,29.28,WNW,295,3.0,6.0,85,0.00,,,0.01,Wunderground v.1.15,2013-06-28 18:45:00,
2013-06-28 14:50:00,70.7,66.3,29.28,West,275,4.0,5.0,86,0.00,,,0.01,Wunderground v.1.15,2013-06-28 18:50:00,
2013-06-28 14:55:00,70.4,65.7,29.28,WNW,285,6.0,7.0,85,0.00,,,0.01,Wunderground v.1.15,2013-06-28 18:55:00,
2013-06-28 15:00:00,70.3,65.9,29.28,NW,309,6.0,7.0,86,0.00,,,0.01,Wunderground v.1.15,2013-06-28 19:00:00,
2013-06-28 15:05:00,70.4,65.3,29.28,WNW,292,6.0,7.0,84,0.00,,,0.01,Wunderground v.1.15,2013-06-28 19:05:00,
2013-06-28 15:10:00,70.2,65.5,29.28,West,277,6.0,6.0,85,0.00,,,0.01,Wunderground v.1.15,2013-06-28 19:10:00,
2013-06-28 15:15:00,70.2,65.1,29.28,West,280,6.0,6.0,84,0.00,,,0.01,Wunderground v.1.15,2013-06-28 19:15:00,
2013-06-28 15:20:00,70.2,65.1,29.28,WNW,288,5.0,5.0,84,0.00,,,0.01,Wunderground v.1.15,2013-06-28 19:20:00,
2013-06-28 15:25:00,70.1,65.4,29.28,WNW,282,5.0,7.0,85,0.00,,,0.01,Wunderground v.1.15,2013-06-28 19:25:00,
2013-06-28 15:30:00,70.2,65.5,29.28,WNW,282,5.0,5.0,85,0.00,,,0.01,Wunderground v.1.15,2013-06-28 19:30:00,
2013-06-28 15:35:00,70.6,66.2,29.28,West,281,4.0,5.0,86,0.00,,,0.01,Wunderground v.1.15,2013-06-28 19:35:00,
2013-06-28 15:45:00,70.9,66.2,29.27,WNW,284,3.0,5.0,85,0.00,,,0.01,Wunderground v.1.15,2013-06-28 19:45:00,
2013-06-28 15:55:00,70.2,65.8,29.27,WNW,288,6.0,6.0,86,0.00,,,0.01,Wunderground v.1.15,2013-06-28 19:55:00,
2013-06-28 16:00:00,69.9,65.5,29.27,WNW,298,6.0,7.0,86,0.00,,,0.01,Wunderground v.1.15,2013-06-28 20:00:00,
2013-06-28 16:10:00,68.9,64.9,29.28,West,271,6.0,6.0,87,0.00,,,0.01,Wunderground v.1.15,2013-06-28 20:10:00,
2013-06-28 16:15:00,68.6,65.5,29.28,West,273,5.0,6.0,90,0.00,,,0.01,Wunderground v.1.15,2013-06-28 20:15:00,
2013-06-28 16:20:00,68.3,65.3,29.27,West,273,2.0,2.0,90,0.00,,,0.01,Wunderground v.1.15,2013-06-28 20:20:00,
2013-06-28 16:25:00,68.3,65.6,29.28,West,273,1.0,2.0,91,0.00,,,0.01,Wunderground v.1.15,2013-06-28 20:25:00,
2013-06-28 16:30:00,68.4,65.7,29.27,West,273,0.0,0.0,91,0.00,,,0.01,Wunderground v.1.15,2013-06-28 20:30:00,
2013-06-28 16:40:00,68.3,65.9,29.28,SE,142,1.0,1.0,92,0.00,,,0.01,Wunderground v.1.15,2013-06-28 20:40:00,
2013-06-28 16:45:00,68.0,65.6,29.28,SSE,161,2.0,4.0,92,0.00,,,0.01,Wunderground v.1.15,2013-06-28 20:45:00,
2013-06-28 16:50:00,67.6,65.2,29.28,SW,225,2.0,2.0,92,0.00,,,0.01,Wunderground v.1.15,2013-06-28 20:50:00,
2013-06-28 16:55:00,67.1,64.7,29.28,WSW,258,1.0,4.0,92,0.00,,,0.01,Wunderground v.1.15,2013-06-28 20:55:00,
2013-06-28 17:00:00,66.7,64.0,29.28,WSW,258,2.0,3.0,91,0.00,,,0.01,Wunderground v.1.15,2013-06-28 21:00:00,
2013-06-28 17:05:00,66.2,63.5,29.28,WNW,284,3.0,4.0,91,0.00,,,0.01,Wunderground v.1.15,2013-06-28 21:05:00,
2013-06-28 17:10:00,65.9,63.5,29.29,WNW,284,3.0,3.0,92,0.00,,,0.01,Wunderground v.1.15,2013-06-28 21:10:00,
2013-06-28 17:20:00,65.6,63.5,29.29,WNW,284,0.0,1.0,93,0.00,,,0.01,Wunderground v.1.15,2013-06-28 21:20:00,
2013-06-28 17:25:00,65.7,63.9,29.29,WNW,284,0.0,1.0,94,0.00,,,0.01,Wunderground v.1.15,2013-06-28 21:25:00,
2013-06-28 17:30:00,65.6,63.8,29.29,WNW,284,0.0,0.0,94,0.00,,,0.01,Wunderground v.1.15,2013-06-28 21:30:00,
2013-06-28 17:35:00,65.7,64.2,29.28,WNW,284,0.0,0.0,95,0.00,,,0.01,Wunderground v.1.15,2013-06-28 21:35:00,
2013-06-28 17:40:00,65.7,64.2,29.28,WNW,284,0.0,0.0,95,0.00,,,0.01,Wunderground v.1.15,2013-06-28 21:40:00,
2013-06-28 17:50:00,65.8,64.3,29.28,WNW,284,1.0,3.0,95,0.00,,,0.01,Wunderground v.1.15,2013-06-28 21:50:00,
2013-06-28 17:55:00,65.9,64.4,29.29,South,180,2.0,3.0,95,0.00,,,0.01,Wunderground v.1.15,2013-06-28 21:55:00,
2013-06-28 18:00:00,65.9,64.4,29.29,South,180,2.0,2.0,95,0.00,,,0.01,Wunderground v.1.15,2013-06-28 22:00:00,
2013-06-28 18:05:00,65.9,64.4,29.30,South,180,2.0,2.0,95,0.00,,,0.01,Wunderground v.1.15,2013-06-28 22:05:00,
2013-06-28 18:10:00,66.1,64.9,29.29,South,180,1.0,1.0,96,0.00,,,0.01,Wunderground v.1.15,2013-06-28 22:10:00,
2013-06-28 18:15:00,66.3,65.1,29.29,South,169,1.0,1.0,96,0.00,,,0.01,Wunderground v.1.15,2013-06-28 22:15:00,
2013-06-28 18:25:00,67.3,66.1,29.27,SW,233,0.0,1.0,96,0.00,,,0.01,Wunderground v.1.15,2013-06-28 22:25:00,
2013-06-28 18:30:00,67.6,66.1,29.27,SW,233,0.0,0.0,95,0.00,,,0.01,Wunderground v.1.15,2013-06-28 22:30:00,
2013-06-28 18:35:00,67.5,65.7,29.27,SW,233,0.0,0.0,94,0.00,,,0.01,Wunderground v.1.15,2013-06-28 22:35:00,
2013-06-28 18:40:00,67.5,65.4,29.28,SW,233,0.0,3.0,93,0.00,,,0.01,Wunderground v.1.15,2013-06-28 22:40:00,
2013-06-28 18:45:00,67.4,65.0,29.29,SW,233,1.0,3.0,92,0.00,,,0.01,Wunderground v.1.15,2013-06-28 22:45:00,
2013-06-28 18:50:00,67.4,65.0,29.30,SW,233,1.0,1.0,92,0.00,,,0.01,Wunderground v.1.15,2013-06-28 22:50:00,
2013-06-28 18:55:00,67.4,65.3,29.29,SW,233,0.0,1.0,93,0.00,,,0.01,Wunderground v.1.15,2013-06-28 22:55:00,
2013-06-28 19:00:00,67.3,65.2,29.29,SW,233,0.0,0.0,93,0.00,,,0.01,Wunderground v.1.15,2013-06-28 23:00:00,
2013-06-28 19:10:00,67.1,64.7,29.28,SW,233,0.0,0.0,92,0.00,,,0.01,Wunderground v.1.15,2013-06-28 23:10:00,
2013-06-28 19:15:00,67.2,65.1,29.29,SW,233,0.0,0.0,93,0.00,,,0.01,Wunderground v.1.15,2013-06-28 23:15:00,
2013-06-28 19:20:00,67.1,65.0,29.30,SW,233,0.0,0.0,93,0.00,,,0.01,Wunderground v.1.15,2013-06-28 23:20:00,
2013-06-28 19:25:00,67.0,65.2,29.30,SW,233,1.0,3.0,94,0.00,,,0.01,Wunderground v.1.15,2013-06-28 23:25:00,
2013-06-28 19:30:00,66.7,64.9,29.29,WSW,242,2.0,4.0,94,0.00,,,0.01,Wunderground v.1.15,2013-06-28 23:30:00,
2013-06-28 19:35:00,66.7,64.9,29.30,West,265,3.0,4.0,94,0.00,,,0.01,Wunderground v.1.15,2013-06-28 23:35:00,
2013-06-28 19:40:00,66.7,64.9,29.30,West,265,3.0,3.0,94,0.00,,,0.01,Wunderground v.1.15,2013-06-28 23:40:00,
2013-06-28 19:45:00,66.5,64.7,29.30,West,265,1.0,3.0,94,0.00,,,0.01,Wunderground v.1.15,2013-06-28 23:45:00,
2013-06-28 19:50:00,66.5,64.7,29.29,West,265,0.0,0.0,94,0.00,,,0.01,Wunderground v.1.15,2013-06-28 23:50:00,
2013-06-28 20:00:00,66.5,64.4,29.30,West,265,0.0,2.0,93,0.00,,,0.01,Wunderground v.1.15,2013-06-29 00:00:00,
2013-06-28 20:05:00,66.6,64.5,29.30,West,265,1.0,2.0,93,0.00,,,0.01,Wunderground v.1.15,2013-06-29 00:05:00,
2013-06-28 20:10:00,66.4,64.3,29.29,West,265,1.0,2.0,93,0.00,,,0.01,Wunderground v.1.15,2013-06-29 00:10:00,
2013-06-28 20:15:00,66.4,64.3,29.30,West,265,1.0,2.0,93,0.00,,,0.01,Wunderground v.1.15,2013-06-29 00:15:00,
2013-06-28 20:20:00,66.4,64.3,29.29,West,265,0.0,0.0,93,0.00,,,0.01,Wunderground v.1.15,2013-06-29 00:20:00,
2013-06-28 20:30:00,66.4,64.3,29.29,West,264,1.0,1.0,93,0.00,,,0.01,Wunderground v.1.15,2013-06-29 00:30:00,
2013-06-28 20:35:00,66.2,64.1,29.30,West,259,1.0,1.0,93,0.00,,,0.01,Wunderground v.1.15,2013-06-29 00:35:00,
2013-06-28 20:40:00,66.0,64.2,29.30,West,259,1.0,1.0,94,0.00,,,0.01,Wunderground v.1.15,2013-06-29 00:40:00,
2013-06-28 20:45:00,65.8,64.0,29.30,West,259,0.0,1.0,94,0.00,,,0.01,Wunderground v.1.15,2013-06-29 00:45:00,
2013-06-28 20:50:00,65.8,64.0,29.30,West,259,0.0,0.0,94,0.00,,,0.01,Wunderground v.1.15,2013-06-29 00:50:00,
2013-06-28 20:55:00,65.8,64.3,29.30,West,259,0.0,0.0,95,0.00,,,0.01,Wunderground v.1.15,2013-06-29 00:55:00,
2013-06-28 21:05:00,65.6,64.1,29.31,West,259,0.0,0.0,95,0.00,,,0.01,Wunderground v.1.15,2013-06-29 01:05:00,
2013-06-28 21:10:00,65.4,63.9,29.31,West,259,0.0,0.0,95,0.00,,,0.01,Wunderground v.1.15,2013-06-29 01:10:00,
2013-06-28 21:15:00,65.4,63.9,29.31,West,259,0.0,0.0,95,0.00,,,0.01,Wunderground v.1.15,2013-06-29 01:15:00,
2013-06-28 21:20:00,65.3,63.8,29.31,West,259,0.0,0.0,95,0.00,,,0.01,Wunderground v.1.15,2013-06-29 01:20:00,
2013-06-28 21:25:00,65.3,63.8,29.31,West,259,0.0,0.0,95,0.00,,,0.01,Wunderground v.1.15,2013-06-29 01:25:00,
2013-06-28 21:35:00,64.9,63.4,29.31,West,259,0.0,0.0,95,0.00,,,0.01,Wunderground v.1.15,2013-06-29 01:35:00,
2013-06-28 21:40:00,64.8,63.3,29.31,West,259,0.0,0.0,95,0.00,,,0.01,Wunderground v.1.15,2013-06-29 01:40:00,
2013-06-28 21:45:00,64.5,63.0,29.31,West,259,0.0,0.0,95,0.00,,,0.01,Wunderground v.1.15,2013-06-29 01:45:00,
2013-06-28 21:50:00,64.4,62.9,29.31,West,259,0.0,0.0,95,0.00,,,0.01,Wunderground v.1.15,2013-06-29 01:50:00,
2013-06-28 21:55:00,64.2,62.7,29.32,West,259,0.0,0.0,95,0.00,,,0.01,Wunderground v.1.15,2013-06-29 01:55:00,
2013-06-28 22:00:00,64.1,62.6,29.32,West,259,0.0,1.0,95,0.00,,,0.01,Wunderground v.1.15,2013-06-29 02:00:00,
2013-06-28 22:05:00,64.0,62.8,29.32,West,259,0.0,1.0,96,0.00,,,0.01,Wunderground v.1.15,2013-06-29 02:05:00,
2013-06-28 22:10:00,63.9,62.7,29.32,West,259,0.0,0.0,96,0.00,,,0.01,Wunderground v.1.15,2013-06-29 02:10:00,
2013-06-28 22:15:00,63.8,62.6,29.32,West,259,0.0,0.0,96,0.00,,,0.01,Wunderground v.1.15,2013-06-29 02:15:00,
2013-06-28 22:20:00,63.7,62.5,29.32,West,259,0.0,0.0,96,0.00,,,0.01,Wunderground v.1.15,2013-06-29 02:20:00,
2013-06-28 22:25:00,63.6,62.4,29.32,West,259,0.0,0.0,96,0.00,,,0.01,Wunderground v.1.15,2013-06-29 02:25:00,
2013-06-28 22:30:00,63.7,62.5,29.32,West,259,0.0,0.0,96,0.00,,,0.01,Wunderground v.1.15,2013-06-29 02:30:00,
2013-06-28 22:35:00,63.6,62.4,29.32,West,259,0.0,0.0,96,0.00,,,0.01,Wunderground v.1.15,2013-06-29 02:35:00,
2013-06-28 22:40:00,63.6,62.4,29.32,West,259,0.0,0.0,96,0.00,,,0.01,Wunderground v.1.15,2013-06-29 02:40:00,
2013-06-28 22:45:00,63.6,62.4,29.32,West,259,0.0,0.0,96,0.00,,,0.01,Wunderground v.1.15,2013-06-29 02:45:00,
2013-06-28 22:50:00,63.5,62.3,29.32,West,259,0.0,0.0,96,0.00,,,0.01,Wunderground v.1.15,2013-06-29 02:50:00,
2013-06-28 22:55:00,63.5,62.3,29.33,West,259,0.0,0.0,96,0.00,,,0.01,Wunderground v.1.15,2013-06-29 02:55:00,
2013-06-28 23:00:00,63.4,62.5,29.33,West,259,0.0,0.0,97,0.00,,,0.01,Wunderground v.1.15,2013-06-29 03:00:00,
2013-06-28 23:10:00,63.5,62.6,29.33,West,259,0.0,0.0,97,0.00,,,0.01,Wunderground v.1.15,2013-06-29 03:10:00,
2013-06-28 23:15:00,63.6,62.7,29.32,West,259,0.0,0.0,97,0.00,,,0.01,Wunderground v.1.15,2013-06-29 03:15:00,
2013-06-28 23:20:00,63.5,62.6,29.32,West,259,0.0,0.0,97,0.00,,,0.01,Wunderground v.1.15,2013-06-29 03:20:00,
2013-06-28 23:25:00,63.5,62.6,29.32,West,259,0.0,0.0,97,0.00,,,0.01,Wunderground v.1.15,2013-06-29 03:25:00,
2013-06-28 23:30:00,63.5,62.6,29.32,West,259,0.0,0.0,97,0.00,,,0.01,Wunderground v.1.15,2013-06-29 03:30:00,
2013-06-28 23:40:00,63.6,62.7,29.32,West,259,0.0,0.0,97,0.00,,,0.01,Wunderground v.1.15,2013-06-29 03:40:00,
2013-06-28 23:45:00,63.6,62.7,29.32,West,259,0.0,0.0,97,0.00,,,0.01,Wunderground v.1.15,2013-06-29 03:45:00,
2013-06-28 23:50:00,63.6,62.7,29.32,West,259,0.0,0.0,97,0.00,,,0.01,Wunderground v.1.15,2013-06-29 03:50:00,
2013-06-28 23:55:00,63.3,62.4,29.32,West,259,0.0,0.0,97,0.00,,,0.01,Wunderground v.1.15,2013-06-29 03:55:00,